Time;durP1;ratioP1;P1;durP2;ratioP2;P2;SDS_P1;SDS_P2;PMS_P1;PMS_P2;Temp;Humidity;BMP_temperature;BMP_pressure;BME280_temperature;BME280_humidity;BME280_pressure;Samples;Min_cycle;Max_cycle;Signal;HPM_P1;HPM_P2
2021/07/26 00:00:46;;;;;;;6.53;3.88;;;;;;;;;;4972809;28;20050;-75
2021/07/26 00:03:11;;;;;;;10.80;4.00;;;;;;;;;;4972789;28;20038;-75
2021/07/26 00:05:36;;;;;;;8.02;3.90;;;;;;;;;;4972939;28;20110;-75
2021/07/26 00:08:02;;;;;;;10.68;3.83;;;;;;;;;;4973136;28;20379;-75
2021/07/26 00:10:28;;;;;;;8.25;3.88;;;;;;;;;;4964683;28;20041;-75
2021/07/26 00:12:53;;;;;;;7.82;3.45;;;;;;;;;;4971242;28;20372;-75
2021/07/26 00:15:19;;;;;;;7.57;3.78;;;;;;;;;;4972323;28;20379;-75
2021/07/26 00:17:44;;;;;;;7.72;4.47;;;;;;;;;;4972902;28;20050;-74
2021/07/26 00:20:11;;;;;;;11.05;4.13;;;;;;;;;;4972581;28;20058;-75
2021/07/26 00:22:38;;;;;;;7.32;3.53;;;;;;;;;;4972667;28;20061;-74
2021/07/26 00:25:08;;;;;;;7.30;3.45;;;;;;;;;;4972723;28;20027;-75
2021/07/26 00:27:34;;;;;;;11.88;4.20;;;;;;;;;;4972818;28;20070;-75
2021/07/26 00:30:00;;;;;;;8.43;3.95;;;;;;;;;;4972385;28;20394;-75
2021/07/26 00:32:28;;;;;;;9.23;3.10;;;;;;;;;;4972561;28;20022;-74
2021/07/26 00:34:54;;;;;;;9.90;3.55;;;;;;;;;;4971062;28;20039;-75
2021/07/26 00:37:19;;;;;;;5.57;3.35;;;;;;;;;;4972424;28;20486;-75
2021/07/26 00:39:45;;;;;;;6.07;3.53;;;;;;;;;;4972031;28;20030;-75
2021/07/26 00:42:10;;;;;;;8.45;3.28;;;;;;;;;;4983292;28;20537;-74
2021/07/26 00:44:35;;;;;;;6.32;3.22;;;;;;;;;;4992000;28;20028;-75
2021/07/26 00:47:02;;;;;;;7.07;3.50;;;;;;;;;;5006640;28;20084;-75
2021/07/26 00:49:28;;;;;;;7.43;3.40;;;;;;;;;;4974881;28;20042;-74
2021/07/26 00:51:57;;;;;;;12.70;4.65;;;;;;;;;;4979842;28;20105;-74
2021/07/26 00:54:28;;;;;;;8.60;3.42;;;;;;;;;;4991865;28;20377;-75
2021/07/26 00:56:56;;;;;;;7.45;3.20;;;;;;;;;;4989181;28;20022;-75
2021/07/26 00:59:22;;;;;;;7.20;3.25;;;;;;;;;;4972681;28;20078;-76
2021/07/26 01:01:48;;;;;;;8.23;3.20;;;;;;;;;;4970771;28;20086;-74
2021/07/26 01:04:13;;;;;;;6.72;3.63;;;;;;;;;;4972639;28;20023;-75
2021/07/26 01:06:39;;;;;;;9.00;3.33;;;;;;;;;;4971979;28;20059;-75
2021/07/26 01:09:05;;;;;;;7.68;3.40;;;;;;;;;;4971839;28;20129;-75
2021/07/26 01:11:31;;;;;;;9.52;3.63;;;;;;;;;;4972170;28;20031;-75
2021/07/26 01:13:56;;;;;;;8.63;3.22;;;;;;;;;;4972210;28;20025;-75
2021/07/26 01:16:23;;;;;;;8.82;3.42;;;;;;;;;;4972104;28;20031;-74
2021/07/26 01:18:49;;;;;;;7.18;3.38;;;;;;;;;;4971832;28;20449;-73
2021/07/26 01:21:17;;;;;;;10.07;3.30;;;;;;;;;;4970815;28;20126;-75
2021/07/26 01:23:48;;;;;;;8.95;3.50;;;;;;;;;;4971910;28;20026;-75
2021/07/26 01:26:16;;;;;;;7.55;3.17;;;;;;;;;;4971441;28;20037;-74
2021/07/26 01:28:51;;;;;;;7.15;3.25;;;;;;;;;;4971109;28;20491;-74
2021/07/26 01:31:17;;;;;;;7.03;3.20;;;;;;;;;;4972032;28;20038;-74
2021/07/26 01:33:46;;;;;;;8.82;3.35;;;;;;;;;;4971548;28;20051;-75
2021/07/26 01:36:13;;;;;;;7.95;3.45;;;;;;;;;;4972125;28;20360;-74
2021/07/26 01:38:39;;;;;;;5.38;2.90;;;;;;;;;;4971949;28;20050;-74
2021/07/26 01:41:07;;;;;;;7.90;3.28;;;;;;;;;;4973198;28;20379;-75
2021/07/26 01:43:33;;;;;;;6.72;3.28;;;;;;;;;;4991323;28;20034;-75
2021/07/26 01:46:01;;;;;;;8.93;3.40;;;;;;;;;;4972877;28;20059;-75
2021/07/26 01:48:49;;;;;;;7.85;3.17;;;;;;;;;;4975438;28;20043;-75
2021/07/26 01:51:23;;;;;;;7.30;3.20;;;;;;;;;;4977427;28;20306;-75
2021/07/26 01:53:49;;;;;;;10.20;3.80;;;;;;;;;;4994117;28;20023;-75
2021/07/26 01:56:14;;;;;;;8.00;3.60;;;;;;;;;;4975377;28;20034;-75
2021/07/26 01:58:40;;;;;;;9.10;3.28;;;;;;;;;;4975367;28;20093;-76
2021/07/26 02:01:06;;;;;;;6.32;2.95;;;;;;;;;;4974963;28;20027;-74
2021/07/26 02:03:31;;;;;;;6.45;3.13;;;;;;;;;;4975295;28;20549;-75
2021/07/26 02:05:57;;;;;;;6.20;3.10;;;;;;;;;;4974435;28;20054;-75
2021/07/26 02:08:23;;;;;;;10.60;3.17;;;;;;;;;;4975011;28;20139;-75
2021/07/26 02:10:48;;;;;;;5.43;3.03;;;;;;;;;;4955599;28;20479;-75
2021/07/26 02:13:14;;;;;;;7.90;3.20;;;;;;;;;;4955853;29;20030;-75
2021/07/26 02:15:40;;;;;;;6.97;3.00;;;;;;;;;;4969898;28;20022;-74
2021/07/26 02:18:06;;;;;;;10.65;3.42;;;;;;;;;;4974861;28;20030;-75
2021/07/26 02:20:31;;;;;;;8.95;3.42;;;;;;;;;;4974750;28;20027;-74
2021/07/26 02:22:57;;;;;;;7.95;3.20;;;;;;;;;;4974744;28;20034;-75
2021/07/26 02:25:22;;;;;;;5.82;2.90;;;;;;;;;;4974379;28;20034;-75
2021/07/26 02:27:48;;;;;;;10.80;4.03;;;;;;;;;;4974890;28;20110;-74
2021/07/26 02:30:14;;;;;;;9.00;3.47;;;;;;;;;;4974704;28;20031;-74
2021/07/26 02:32:40;;;;;;;8.45;3.00;;;;;;;;;;4974835;28;20041;-74
2021/07/26 02:35:06;;;;;;;7.45;3.08;;;;;;;;;;4974239;28;20042;-75
2021/07/26 02:37:32;;;;;;;10.02;3.05;;;;;;;;;;4974580;28;20035;-75
2021/07/26 02:39:58;;;;;;;7.03;3.08;;;;;;;;;;4974426;28;20023;-75
2021/07/26 02:42:23;;;;;;;7.55;3.10;;;;;;;;;;4986967;28;20026;-75
2021/07/26 02:44:48;;;;;;;6.93;3.38;;;;;;;;;;4995164;28;20031;-75
2021/07/26 02:47:14;;;;;;;9.07;3.20;;;;;;;;;;4974453;28;20129;-75
2021/07/26 02:49:40;;;;;;;9.52;3.35;;;;;;;;;;4974649;28;20022;-75
2021/07/26 02:52:05;;;;;;;8.70;3.55;;;;;;;;;;4983032;28;20474;-74
2021/07/26 02:54:31;;;;;;;8.95;3.35;;;;;;;;;;4974377;28;20026;-75
2021/07/26 02:56:57;;;;;;;6.45;3.05;;;;;;;;;;4974210;28;20037;-74
2021/07/26 02:59:22;;;;;;;6.63;3.10;;;;;;;;;;4973490;28;20030;-75
2021/07/26 03:01:51;;;;;;;7.47;3.40;;;;;;;;;;4973987;28;20105;-74
2021/07/26 03:04:16;;;;;;;7.97;3.10;;;;;;;;;;4973992;28;20049;-74
2021/07/26 03:06:43;;;;;;;7.03;3.40;;;;;;;;;;4974247;28;20027;-75
2021/07/26 03:09:08;;;;;;;9.32;3.40;;;;;;;;;;4973850;28;20379;-75
2021/07/26 03:11:36;;;;;;;6.20;3.50;;;;;;;;;;4973906;28;20114;-74
2021/07/26 03:14:01;;;;;;;11.48;3.58;;;;;;;;;;4973350;28;20166;-74
2021/07/26 03:16:27;;;;;;;6.22;3.20;;;;;;;;;;4973704;28;20454;-74
2021/07/26 03:18:53;;;;;;;4.80;3.35;;;;;;;;;;4973656;28;20019;-75
2021/07/26 03:21:18;;;;;;;8.90;3.35;;;;;;;;;;4973927;28;20035;-75
2021/07/26 03:23:44;;;;;;;7.03;3.40;;;;;;;;;;4973863;28;20077;-75
2021/07/26 03:26:10;;;;;;;9.48;3.30;;;;;;;;;;4973231;28;20081;-75
2021/07/26 03:28:35;;;;;;;7.97;3.25;;;;;;;;;;4973855;28;20447;-75
2021/07/26 03:31:02;;;;;;;8.98;3.35;;;;;;;;;;4973272;28;20471;-75
2021/07/26 03:33:29;;;;;;;8.88;3.40;;;;;;;;;;4973238;28;20081;-74
2021/07/26 03:35:55;;;;;;;7.05;3.20;;;;;;;;;;4973014;28;20033;-75
2021/07/26 03:38:21;;;;;;;8.18;3.60;;;;;;;;;;4973594;28;20474;-74
2021/07/26 03:40:48;;;;;;;6.80;3.35;;;;;;;;;;4973446;28;20283;-74
2021/07/26 03:43:14;;;;;;;6.35;2.90;;;;;;;;;;4979918;28;20082;-75
2021/07/26 03:45:41;;;;;;;9.27;3.63;;;;;;;;;;4973113;28;20138;-75
2021/07/26 03:48:07;;;;;;;8.23;3.97;;;;;;;;;;4973233;28;20031;-76
2021/07/26 03:50:32;;;;;;;6.82;3.33;;;;;;;;;;4973387;28;20033;-75
2021/07/26 03:52:58;;;;;;;6.70;3.50;;;;;;;;;;4979132;28;20030;-75
2021/07/26 03:55:35;;;;;;;8.50;3.40;;;;;;;;;;4972929;28;20324;-74
2021/07/26 03:58:00;;;;;;;8.68;3.40;;;;;;;;;;4973170;28;20084;-75
2021/07/26 04:00:28;;;;;;;6.15;3.40;;;;;;;;;;4972715;28;20022;-74
2021/07/26 04:03:05;;;;;;;6.38;3.38;;;;;;;;;;4972562;28;20030;-75
2021/07/26 04:05:37;;;;;;;12.13;3.83;;;;;;;;;;4971382;28;20027;-73
2021/07/26 04:08:08;;;;;;;7.18;3.40;;;;;;;;;;4972901;28;20097;-73
2021/07/26 04:10:40;;;;;;;6.75;3.15;;;;;;;;;;4972947;28;20054;-74
2021/07/26 04:13:06;;;;;;;7.90;3.30;;;;;;;;;;4972817;28;20052;-74
2021/07/26 04:15:31;;;;;;;8.13;3.25;;;;;;;;;;4972846;28;20023;-74
2021/07/26 04:17:57;;;;;;;8.10;3.10;;;;;;;;;;4972826;28;20035;-75
2021/07/26 04:20:22;;;;;;;7.07;3.08;;;;;;;;;;4972744;28;20113;-75
2021/07/26 04:22:48;;;;;;;8.48;3.50;;;;;;;;;;4972733;28;20031;-75
2021/07/26 04:25:13;;;;;;;6.32;2.92;;;;;;;;;;4972109;28;20364;-75
2021/07/26 04:27:39;;;;;;;8.38;2.90;;;;;;;;;;4971152;28;20027;-75
2021/07/26 04:30:06;;;;;;;7.38;3.00;;;;;;;;;;4972360;28;20027;-75
2021/07/26 04:32:43;;;;;;;11.02;3.95;;;;;;;;;;4972626;28;20460;-75
2021/07/26 04:35:09;;;;;;;8.65;3.15;;;;;;;;;;4972537;28;20383;-75
2021/07/26 04:37:35;;;;;;;9.75;3.20;;;;;;;;;;4972505;28;20022;-75
2021/07/26 04:40:00;;;;;;;7.72;3.20;;;;;;;;;;4972248;28;20382;-74
2021/07/26 04:42:26;;;;;;;8.85;3.28;;;;;;;;;;4985706;28;20029;-74
2021/07/26 04:44:51;;;;;;;8.07;3.60;;;;;;;;;;4990685;28;20505;-75
2021/07/26 04:47:16;;;;;;;8.68;3.20;;;;;;;;;;4972213;28;20033;-75
2021/07/26 04:49:42;;;;;;;7.03;3.42;;;;;;;;;;4972328;28;20022;-75
2021/07/26 04:52:07;;;;;;;11.15;3.17;;;;;;;;;;4982000;28;20029;-75
2021/07/26 04:54:33;;;;;;;10.30;3.47;;;;;;;;;;4991828;28;20019;-75
2021/07/26 04:56:58;;;;;;;8.02;3.05;;;;;;;;;;4991611;28;20022;-75
2021/07/26 04:59:24;;;;;;;7.20;3.15;;;;;;;;;;4981243;28;20023;-75
2021/07/26 05:01:49;;;;;;;8.02;3.13;;;;;;;;;;4972365;28;20053;-75
2021/07/26 05:04:14;;;;;;;5.55;3.00;;;;;;;;;;4972263;28;20031;-74
2021/07/26 05:06:40;;;;;;;7.80;2.95;;;;;;;;;;4972234;28;20427;-74
2021/07/26 05:09:06;;;;;;;11.25;3.08;;;;;;;;;;4971930;28;20046;-75
2021/07/26 05:11:31;;;;;;;9.23;3.17;;;;;;;;;;4971020;28;20062;-75
2021/07/26 05:13:56;;;;;;;9.98;3.40;;;;;;;;;;4972231;28;20042;-74
2021/07/26 05:16:22;;;;;;;6.78;3.20;;;;;;;;;;4972217;28;20067;-75
2021/07/26 05:18:53;;;;;;;6.30;3.40;;;;;;;;;;4971886;28;20035;-75
2021/07/26 05:21:19;;;;;;;7.50;3.28;;;;;;;;;;4972658;28;20121;-75
2021/07/26 05:23:44;;;;;;;9.95;3.30;;;;;;;;;;4975964;28;20200;-75
2021/07/26 05:26:09;;;;;;;9.48;3.20;;;;;;;;;;4974378;28;20027;-75
2021/07/26 05:28:35;;;;;;;6.45;2.95;;;;;;;;;;4975731;28;20030;-76
2021/07/26 05:31:00;;;;;;;7.88;2.90;;;;;;;;;;4974674;28;20479;-75
2021/07/26 05:33:26;;;;;;;7.30;2.97;;;;;;;;;;4975244;28;20026;-75
2021/07/26 05:35:51;;;;;;;6.90;2.70;;;;;;;;;;4975706;28;20015;-75
2021/07/26 05:38:17;;;;;;;11.93;3.35;;;;;;;;;;4975000;28;20030;-76
2021/07/26 05:40:42;;;;;;;7.47;3.45;;;;;;;;;;4974747;28;20031;-76
2021/07/26 05:43:10;;;;;;;11.75;3.63;;;;;;;;;;4987184;28;20034;-76
2021/07/26 05:45:37;;;;;;;8.27;2.83;;;;;;;;;;4975260;28;20039;-74
2021/07/26 05:48:03;;;;;;;7.38;2.90;;;;;;;;;;4975379;28;20034;-75
2021/07/26 05:50:29;;;;;;;7.78;2.90;;;;;;;;;;4975218;28;20030;-75
2021/07/26 05:52:54;;;;;;;8.90;3.08;;;;;;;;;;4986514;28;20442;-75
2021/07/26 05:55:19;;;;;;;9.20;3.05;;;;;;;;;;4975352;28;20054;-75
2021/07/26 05:57:46;;;;;;;6.78;2.92;;;;;;;;;;4975271;28;20030;-75
2021/07/26 06:00:17;;;;;;;13.75;3.45;;;;;;;;;;4974326;28;20538;-75
2021/07/26 06:02:43;;;;;;;8.73;3.05;;;;;;;;;;4974778;28;20102;-76
2021/07/26 06:05:09;;;;;;;7.63;3.22;;;;;;;;;;4975143;28;20114;-76
2021/07/26 06:07:34;;;;;;;6.72;3.00;;;;;;;;;;4974936;28;20023;-75
2021/07/26 06:09:59;;;;;;;7.03;3.10;;;;;;;;;;4973695;28;20126;-75
2021/07/26 06:12:26;;;;;;;8.23;3.10;;;;;;;;;;4975084;28;20029;-75
2021/07/26 06:14:52;;;;;;;8.63;3.20;;;;;;;;;;4974963;28;20019;-75
2021/07/26 06:17:18;;;;;;;7.93;3.10;;;;;;;;;;4974607;28;20101;-75
2021/07/26 06:19:44;;;;;;;14.10;3.45;;;;;;;;;;4974793;28;20039;-75
2021/07/26 06:22:09;;;;;;;9.57;3.25;;;;;;;;;;4974543;28;20026;-75
2021/07/26 06:24:35;;;;;;;7.57;3.22;;;;;;;;;;4974765;28;20602;-75
2021/07/26 06:27:00;;;;;;;6.68;3.20;;;;;;;;;;4974464;28;20023;-76
2021/07/26 06:29:26;;;;;;;12.73;4.20;;;;;;;;;;4974462;28;20039;-75
2021/07/26 06:31:53;;;;;;;6.85;3.40;;;;;;;;;;4974305;28;20110;-75
2021/07/26 06:34:21;;;;;;;9.13;3.15;;;;;;;;;;4974547;28;20130;-76
2021/07/26 06:36:47;;;;;;;6.53;3.40;;;;;;;;;;4974367;28;20030;-75
2021/07/26 06:39:13;;;;;;;7.65;3.08;;;;;;;;;;4974232;28;20033;-75
2021/07/26 06:41:38;;;;;;;5.38;3.13;;;;;;;;;;4981110;28;20081;-75
2021/07/26 06:44:04;;;;;;;8.27;3.63;;;;;;;;;;4993832;28;20077;-76
2021/07/26 06:46:30;;;;;;;10.25;3.63;;;;;;;;;;4975276;28;20467;-76
2021/07/26 06:48:55;;;;;;;6.90;3.35;;;;;;;;;;4974258;28;20057;-76
2021/07/26 06:51:22;;;;;;;9.05;3.78;;;;;;;;;;4977359;28;20022;-76
2021/07/26 06:53:47;;;;;;;9.95;3.33;;;;;;;;;;4993797;28;20027;-75
2021/07/26 06:56:13;;;;;;;10.77;3.58;;;;;;;;;;4978553;28;20475;-75
2021/07/26 06:58:41;;;;;;;9.20;3.70;;;;;;;;;;4974479;28;20025;-76
2021/07/26 07:01:11;;;;;;;10.65;4.40;;;;;;;;;;4972678;28;20019;-76
2021/07/26 07:03:41;;;;;;;9.93;3.63;;;;;;;;;;4972559;28;20022;-76
2021/07/26 07:06:09;;;;;;;4.88;3.15;;;;;;;;;;4990493;28;20030;-76
2021/07/26 07:08:36;;;;;;;7.82;3.58;;;;;;;;;;4971815;28;20493;-74
2021/07/26 07:11:05;;;;;;;7.70;3.35;;;;;;;;;;4972874;28;20027;-76
2021/07/26 07:13:32;;;;;;;7.88;3.05;;;;;;;;;;4973493;28;20034;-73
2021/07/26 07:15:58;;;;;;;8.98;3.85;;;;;;;;;;4973532;28;20510;-74
2021/07/26 07:18:23;;;;;;;7.93;3.55;;;;;;;;;;4974210;28;20061;-73
2021/07/26 07:20:49;;;;;;;7.30;3.45;;;;;;;;;;4973504;28;20022;-73
2021/07/26 07:23:14;;;;;;;8.18;3.35;;;;;;;;;;4973398;28;20483;-73
2021/07/26 07:25:40;;;;;;;12.13;4.10;;;;;;;;;;4972719;28;20022;-72
2021/07/26 07:28:05;;;;;;;8.48;3.90;;;;;;;;;;4974296;28;20098;-73
2021/07/26 07:30:31;;;;;;;7.50;3.58;;;;;;;;;;4973446;28;20338;-73
2021/07/26 07:33:00;;;;;;;6.88;4.10;;;;;;;;;;4973598;28;20022;-73
2021/07/26 07:35:25;;;;;;;7.55;3.83;;;;;;;;;;4972984;28;20109;-74
2021/07/26 07:37:52;;;;;;;9.32;4.03;;;;;;;;;;4972639;28;20026;-73
2021/07/26 07:40:18;;;;;;;8.90;4.10;;;;;;;;;;4972819;28;20042;-73
2021/07/26 07:42:44;;;;;;;9.27;4.00;;;;;;;;;;4972581;28;20438;-74
2021/07/26 07:45:10;;;;;;;9.85;3.95;;;;;;;;;;4972492;28;20027;-72
2021/07/26 07:47:36;;;;;;;9.93;4.40;;;;;;;;;;4967344;28;20029;-74
2021/07/26 07:50:04;;;;;;;7.50;4.88;;;;;;;;;;4972898;28;20105;-74
2021/07/26 07:52:32;;;;;;;10.48;5.18;;;;;;;;;;4977680;28;20391;-73
2021/07/26 07:54:57;;;;;;;7.22;4.63;;;;;;;;;;4969517;28;20093;-74
2021/07/26 07:57:25;;;;;;;9.07;4.95;;;;;;;;;;4971076;28;20035;-73
2021/07/26 07:59:50;;;;;;;13.45;4.85;;;;;;;;;;4972170;28;20026;-73
2021/07/26 08:02:17;;;;;;;9.95;4.60;;;;;;;;;;4966476;28;20019;-74
2021/07/26 08:04:43;;;;;;;9.93;4.43;;;;;;;;;;4971173;28;20060;-73
2021/07/26 08:07:09;;;;;;;9.93;4.43;;;;;;;;;;4973133;28;20054;-73
2021/07/26 08:09:34;;;;;;;7.97;4.88;;;;;;;;;;4973408;28;20034;-73
2021/07/26 08:12:00;;;;;;;11.68;4.85;;;;;;;;;;4973009;28;20118;-73
2021/07/26 08:14:25;;;;;;;8.02;4.57;;;;;;;;;;4972929;28;20065;-74
2021/07/26 08:16:51;;;;;;;10.55;4.65;;;;;;;;;;4972920;28;20421;-74
2021/07/26 08:19:16;;;;;;;9.85;5.20;;;;;;;;;;4972183;28;20027;-74
2021/07/26 08:21:42;;;;;;;9.32;5.55;;;;;;;;;;4972653;28;20029;-74
2021/07/26 08:24:07;;;;;;;8.82;4.95;;;;;;;;;;4972378;28;20027;-74
2021/07/26 08:26:34;;;;;;;11.52;5.10;;;;;;;;;;4972386;28;20509;-74
2021/07/26 08:28:59;;;;;;;8.82;5.05;;;;;;;;;;4970472;28;20134;-74
2021/07/26 08:31:25;;;;;;;11.32;5.22;;;;;;;;;;4972981;28;20113;-73
2021/07/26 08:33:51;;;;;;;9.82;4.93;;;;;;;;;;4971648;28;20086;-75
2021/07/26 08:36:16;;;;;;;7.75;5.05;;;;;;;;;;4971711;28;20022;-72
2021/07/26 08:38:41;;;;;;;9.45;4.90;;;;;;;;;;4972799;28;20026;-72
2021/07/26 08:41:07;;;;;;;12.95;5.47;;;;;;;;;;4975117;28;20717;-72
2021/07/26 08:43:35;;;;;;;8.07;4.80;;;;;;;;;;4974520;28;20039;-72
2021/07/26 08:46:01;;;;;;;9.77;4.97;;;;;;;;;;4971644;28;20030;-73
2021/07/26 08:48:30;;;;;;;10.50;5.68;;;;;;;;;;4971407;28;20120;-74
2021/07/26 08:50:56;;;;;;;12.35;5.70;;;;;;;;;;4971373;28;20030;-75
2021/07/26 08:53:24;;;;;;;8.73;5.03;;;;;;;;;;4970811;28;20030;-74
2021/07/26 08:55:49;;;;;;;12.90;5.22;;;;;;;;;;4974249;28;20037;-77
2021/07/26 08:58:16;;;;;;;9.70;5.43;;;;;;;;;;4976948;28;20023;-74
2021/07/26 09:00:42;;;;;;;9.65;5.55;;;;;;;;;;4979582;28;20368;-76
2021/07/26 09:03:08;;;;;;;10.35;6.28;;;;;;;;;;4988465;28;20283;-75
2021/07/26 09:05:33;;;;;;;11.57;5.82;;;;;;;;;;4980139;28;20023;-76
2021/07/26 09:08:01;;;;;;;9.27;6.00;;;;;;;;;;4976765;28;20062;-77
2021/07/26 09:10:29;;;;;;;8.00;6.00;;;;;;;;;;4975817;28;20039;-78
2021/07/26 09:12:56;;;;;;;10.07;5.50;;;;;;;;;;4976704;28;20026;-78
2021/07/26 09:15:23;;;;;;;7.78;5.57;;;;;;;;;;4975909;28;20038;-78
2021/07/26 09:17:49;;;;;;;10.13;5.97;;;;;;;;;;4976116;28;20031;-78
2021/07/26 09:20:16;;;;;;;9.00;5.68;;;;;;;;;;4975634;28;20050;-77
2021/07/26 09:22:43;;;;;;;9.20;5.35;;;;;;;;;;4974916;28;20023;-78
2021/07/26 09:25:29;;;;;;;9.45;5.63;;;;;;;;;;4975471;28;20097;-77
2021/07/26 09:28:05;;;;;;;7.85;6.05;;;;;;;;;;4975595;28;20027;-76
2021/07/26 09:30:43;;;;;;;8.80;5.50;;;;;;;;;;4973961;28;20031;-75
2021/07/26 09:33:25;;;;;;;9.73;5.70;;;;;;;;;;4975365;28;20483;-78
2021/07/26 09:36:13;;;;;;;7.80;5.00;;;;;;;;;;4974224;28;20495;-77
2021/07/26 09:38:41;;;;;;;10.13;5.25;;;;;;;;;;4975307;28;20026;-76
2021/07/26 09:41:08;;;;;;;8.43;5.32;;;;;;;;;;4976139;28;20035;-75
2021/07/26 09:43:34;;;;;;;8.98;5.32;;;;;;;;;;4994860;28;20037;-75
2021/07/26 09:46:00;;;;;;;8.93;5.38;;;;;;;;;;4994452;28;20030;-76
2021/07/26 09:48:27;;;;;;;10.13;4.95;;;;;;;;;;4994472;28;20482;-75
2021/07/26 09:50:54;;;;;;;8.48;5.40;;;;;;;;;;4994626;28;20022;-76
2021/07/26 09:53:23;;;;;;;8.65;5.80;;;;;;;;;;4975101;28;20018;-75
2021/07/26 09:55:50;;;;;;;10.77;5.88;;;;;;;;;;4975204;28;20034;-75
2021/07/26 09:58:19;;;;;;;9.20;6.13;;;;;;;;;;4974918;28;20023;-75
2021/07/26 10:00:46;;;;;;;8.70;6.07;;;;;;;;;;4974930;28;20049;-74
2021/07/26 10:03:15;;;;;;;9.35;5.82;;;;;;;;;;4974544;28;20037;-75
2021/07/26 10:05:42;;;;;;;11.70;6.50;;;;;;;;;;4974600;28;20027;-75
2021/07/26 10:08:09;;;;;;;9.40;6.07;;;;;;;;;;4974467;28;20051;-76
2021/07/26 10:10:41;;;;;;;8.05;6.15;;;;;;;;;;4974915;28;20434;-74
2021/07/26 10:13:08;;;;;;;10.75;5.80;;;;;;;;;;4974584;28;20031;-75
2021/07/26 10:15:34;;;;;;;9.70;6.40;;;;;;;;;;4974461;28;20540;-75
2021/07/26 10:18:00;;;;;;;9.30;6.72;;;;;;;;;;4974573;28;20027;-75
2021/07/26 10:20:30;;;;;;;8.77;5.93;;;;;;;;;;4973058;28;20027;-77
2021/07/26 10:23:14;;;;;;;12.27;6.65;;;;;;;;;;4973722;28;20041;-77
2021/07/26 10:25:44;;;;;;;10.10;6.18;;;;;;;;;;4974467;28;20023;-75
2021/07/26 10:28:25;;;;;;;9.77;6.03;;;;;;;;;;4974394;28;20636;-76
2021/07/26 10:30:50;;;;;;;9.40;6.00;;;;;;;;;;4989440;28;20026;-77
2021/07/26 10:33:17;;;;;;;8.20;6.03;;;;;;;;;;4974176;28;20081;-76
2021/07/26 10:35:52;;;;;;;9.48;6.55;;;;;;;;;;4974230;28;20121;-75
2021/07/26 10:38:46;;;;;;;13.60;6.93;;;;;;;;;;4974131;28;20383;-75
2021/07/26 10:41:43;;;;;;;6.97;6.07;;;;;;;;;;4976814;28;20124;-76
2021/07/26 10:44:15;;;;;;;10.38;6.20;;;;;;;;;;4993505;28;20114;-77
2021/07/26 10:46:56;;;;;;;11.50;6.28;;;;;;;;;;4993769;28;20434;-77
2021/07/26 10:49:43;;;;;;;8.80;6.50;;;;;;;;;;4993604;28;20364;-76
2021/07/26 10:52:11;;;;;;;9.95;6.30;;;;;;;;;;4983793;28;20033;-78
2021/07/26 10:54:37;;;;;;;8.27;6.15;;;;;;;;;;4973811;28;20035;-77
2021/07/26 10:57:03;;;;;;;9.10;6.20;;;;;;;;;;4973875;28;20026;-77
2021/07/26 10:59:29;;;;;;;11.55;6.43;;;;;;;;;;4973525;28;20057;-76
2021/07/26 11:02:03;;;;;;;8.95;6.22;;;;;;;;;;4973987;28;20711;-76
2021/07/26 11:04:37;;;;;;;10.45;6.65;;;;;;;;;;4973617;28;20105;-76
2021/07/26 11:07:08;;;;;;;11.25;6.53;;;;;;;;;;4973824;28;20034;-76
2021/07/26 11:09:36;;;;;;;9.13;6.25;;;;;;;;;;4973884;28;20025;-77
2021/07/26 11:12:02;;;;;;;11.23;6.72;;;;;;;;;;4973842;28;20015;-76
2021/07/26 11:14:28;;;;;;;9.57;7.25;;;;;;;;;;4973264;28;20497;-76
2021/07/26 11:16:55;;;;;;;8.98;7.07;;;;;;;;;;4972235;28;20031;-76
2021/07/26 11:19:36;;;;;;;9.95;6.60;;;;;;;;;;4972711;28;20034;-75
2021/07/26 11:22:22;;;;;;;9.10;6.50;;;;;;;;;;4973576;28;20081;-75
2021/07/26 11:24:49;;;;;;;7.82;6.32;;;;;;;;;;4971982;28;20096;-77
2021/07/26 11:27:22;;;;;;;10.25;6.00;;;;;;;;;;4973212;28;20030;-77
2021/07/26 11:29:52;;;;;;;11.00;6.25;;;;;;;;;;4973313;28;20062;-77
2021/07/26 11:32:22;;;;;;;14.65;7.05;;;;;;;;;;4971866;28;20034;-76
2021/07/26 11:34:53;;;;;;;8.13;6.60;;;;;;;;;;4973008;28;20336;-77
2021/07/26 11:37:18;;;;;;;9.18;6.63;;;;;;;;;;4973000;28;20045;-76
2021/07/26 11:39:55;;;;;;;9.00;6.53;;;;;;;;;;4973220;28;20023;-77
2021/07/26 11:42:25;;;;;;;9.63;6.20;;;;;;;;;;4984833;28;20045;-78
2021/07/26 11:44:52;;;;;;;11.15;6.35;;;;;;;;;;4992390;28;20030;-75
2021/07/26 11:47:28;;;;;;;15.57;6.57;;;;;;;;;;4992189;28;20030;-78
2021/07/26 11:49:53;;;;;;;12.90;6.10;;;;;;;;;;4992383;28;20033;-75
2021/07/26 11:52:19;;;;;;;9.07;6.47;;;;;;;;;;4981176;28;20027;-77
2021/07/26 11:54:44;;;;;;;10.60;6.70;;;;;;;;;;4972998;28;20414;-77
2021/07/26 11:57:11;;;;;;;11.15;6.60;;;;;;;;;;4972817;28;20027;-76
2021/07/26 11:59:39;;;;;;;7.60;6.32;;;;;;;;;;4972731;28;20039;-75
2021/07/26 12:02:14;;;;;;;9.68;6.65;;;;;;;;;;4972669;28;20045;-77
2021/07/26 12:04:40;;;;;;;9.05;6.63;;;;;;;;;;4972579;28;20026;-77
2021/07/26 12:07:07;;;;;;;9.93;6.05;;;;;;;;;;4971506;28;20094;-77
2021/07/26 12:09:35;;;;;;;6.65;5.82;;;;;;;;;;4972410;28;20022;-75
2021/07/26 12:12:12;;;;;;;9.95;6.28;;;;;;;;;;4971233;28;20058;-76
2021/07/26 12:14:38;;;;;;;8.20;6.15;;;;;;;;;;4972356;28;20019;-78
2021/07/26 12:17:09;;;;;;;7.32;5.60;;;;;;;;;;4972830;28;20023;-74
2021/07/26 12:19:38;;;;;;;6.80;5.60;;;;;;;;;;4972431;28;20479;-76
2021/07/26 12:22:21;;;;;;;8.75;5.78;;;;;;;;;;4972359;28;20118;-73
2021/07/26 12:24:58;;;;;;;6.57;5.68;;;;;;;;;;4972314;28;20031;-76
2021/07/26 12:27:37;;;;;;;8.88;6.03;;;;;;;;;;4971985;28;20109;-77
2021/07/26 12:30:13;;;;;;;10.40;6.47;;;;;;;;;;4971954;28;20414;-75
2021/07/26 12:32:49;;;;;;;10.68;6.03;;;;;;;;;;4972137;28;20042;-75
2021/07/26 12:35:22;;;;;;;6.85;5.90;;;;;;;;;;4972195;28;20443;-77
2021/07/26 12:38:16;;;;;;;8.77;5.63;;;;;;;;;;4972394;28;20027;-77
2021/07/26 12:41:02;;;;;;;12.07;6.13;;;;;;;;;;4972246;28;20312;-78
2021/07/26 12:43:27;;;;;;;9.18;5.88;;;;;;;;;;4970861;28;20034;-76
2021/07/26 12:45:59;;;;;;;7.55;5.43;;;;;;;;;;4972083;28;20019;-77
2021/07/26 12:48:27;;;;;;;8.70;5.82;;;;;;;;;;4971888;28;20022;-77
2021/07/26 12:50:53;;;;;;;8.75;5.82;;;;;;;;;;4972114;28;20058;-75
2021/07/26 12:53:19;;;;;;;8.70;6.00;;;;;;;;;;4990827;28;20030;-75
2021/07/26 12:55:46;;;;;;;9.85;5.80;;;;;;;;;;4991405;28;20022;-76
2021/07/26 12:58:15;;;;;;;9.35;5.90;;;;;;;;;;4991259;28;20026;-77
2021/07/26 13:00:42;;;;;;;10.05;6.03;;;;;;;;;;4990931;28;20371;-76
2021/07/26 13:03:14;;;;;;;8.48;5.88;;;;;;;;;;4985173;28;20386;-77
2021/07/26 13:05:41;;;;;;;10.02;5.90;;;;;;;;;;4970794;28;20034;-76
2021/07/26 13:08:07;;;;;;;11.32;6.50;;;;;;;;;;4974938;28;20035;-73
2021/07/26 13:10:33;;;;;;;9.00;6.22;;;;;;;;;;4977692;28;20023;-73
2021/07/26 13:12:59;;;;;;;8.60;5.78;;;;;;;;;;4965809;28;20113;-73
2021/07/26 13:15:26;;;;;;;7.57;5.50;;;;;;;;;;4970723;28;20102;-74
2021/07/26 13:17:53;;;;;;;7.25;5.60;;;;;;;;;;4972553;28;20023;-73
2021/07/26 13:20:18;;;;;;;10.32;6.00;;;;;;;;;;4970733;28;20026;-74
2021/07/26 13:22:43;;;;;;;9.27;6.35;;;;;;;;;;4966479;28;20031;-73
2021/07/26 13:25:09;;;;;;;9.07;6.00;;;;;;;;;;4977933;28;20327;-74
2021/07/26 13:27:36;;;;;;;11.65;6.00;;;;;;;;;;4977388;28;20381;-72
2021/07/26 13:30:03;;;;;;;10.50;6.70;;;;;;;;;;4970810;28;20072;-73
2021/07/26 13:32:29;;;;;;;8.70;5.90;;;;;;;;;;4978071;28;20033;-74
2021/07/26 13:34:56;;;;;;;9.98;6.18;;;;;;;;;;4980671;28;20051;-74
2021/07/26 13:37:22;;;;;;;8.85;6.00;;;;;;;;;;4989354;28;20034;-73
2021/07/26 13:39:48;;;;;;;10.52;6.95;;;;;;;;;;4991351;28;20105;-73
2021/07/26 13:42:13;;;;;;;10.32;6.20;;;;;;;;;;4989766;28;20113;-75
2021/07/26 13:44:39;;;;;;;12.30;6.07;;;;;;;;;;4980283;28;20030;-74
2021/07/26 13:47:08;;;;;;;8.50;6.22;;;;;;;;;;4976182;28;20034;-74
2021/07/26 13:49:34;;;;;;;12.10;6.18;;;;;;;;;;4988977;28;20035;-73
2021/07/26 13:52:00;;;;;;;10.55;6.25;;;;;;;;;;4975815;28;20359;-73
2021/07/26 13:54:27;;;;;;;12.93;6.70;;;;;;;;;;4975223;28;20035;-74
2021/07/26 13:56:52;;;;;;;10.10;6.90;;;;;;;;;;4975429;28;20541;-73
2021/07/26 13:59:18;;;;;;;11.68;6.47;;;;;;;;;;4962254;28;20074;-72
2021/07/26 14:01:43;;;;;;;12.48;6.28;;;;;;;;;;4994538;28;20025;-74
2021/07/26 14:04:09;;;;;;;10.93;6.28;;;;;;;;;;4984336;28;20034;-74
2021/07/26 14:06:35;;;;;;;10.13;5.65;;;;;;;;;;4986486;28;20049;-74
2021/07/26 14:09:00;;;;;;;10.43;5.53;;;;;;;;;;4983067;28;20411;-75
2021/07/26 14:11:26;;;;;;;8.90;5.35;;;;;;;;;;4974822;28;20026;-73
2021/07/26 14:13:52;;;;;;;12.20;5.53;;;;;;;;;;4974902;28;20035;-74
2021/07/26 14:16:17;;;;;;;11.23;5.82;;;;;;;;;;4974810;28;20031;-74
2021/07/26 14:18:43;;;;;;;8.30;5.60;;;;;;;;;;4974662;28;20105;-75
2021/07/26 14:21:08;;;;;;;10.50;5.80;;;;;;;;;;4974877;28;20049;-75
2021/07/26 14:23:33;;;;;;;10.27;5.22;;;;;;;;;;4974354;28;20031;-74
2021/07/26 14:25:59;;;;;;;15.27;6.15;;;;;;;;;;4974590;28;20491;-73
2021/07/26 14:28:25;;;;;;;10.07;5.60;;;;;;;;;;4958545;28;20472;-73
2021/07/26 14:30:50;;;;;;;13.75;5.97;;;;;;;;;;4955494;28;20039;-73
2021/07/26 14:33:16;;;;;;;10.68;6.00;;;;;;;;;;4959930;28;20502;-73
2021/07/26 14:35:42;;;;;;;9.57;5.78;;;;;;;;;;4973695;28;20034;-72
2021/07/26 14:38:09;;;;;;;11.43;5.38;;;;;;;;;;4974492;28;20077;-74
2021/07/26 14:40:35;;;;;;;9.93;4.90;;;;;;;;;;4974905;28;20459;-74
2021/07/26 14:43:01;;;;;;;9.65;4.95;;;;;;;;;;4980276;28;20093;-73